Time;durP1;ratioP1;P1;durP2;ratioP2;P2;SDS_P1;SDS_P2;PMS_P1;PMS_P2;Temp;Humidity;BMP_temperature;BMP_pressure;BME280_temperature;BME280_humidity;BME280_pressure;Samples;Min_cycle;Max_cycle;Signal;HPM_P1;HPM_P2
2023/09/16 07:09:03;;;;;;;5.30;2.90;;;16.10;96.20;;;;;;6237033;22;20397;-69
2023/09/16 07:11:49;;;;;;;6.07;3.35;;;16.10;96.30;;;;;;6242110;23;20016;-69
2023/09/16 07:14:38;;;;;;;6.80;3.50;;;16.20;96.40;;;;;;6241773;23;20528;-69
2023/09/16 07:17:24;;;;;;;4.30;2.92;;;16.30;96.40;;;;;;6240552;22;20016;-69
2023/09/16 07:20:11;;;;;;;5.22;2.85;;;16.30;96.30;;;;;;6241028;22;20082;-69
2023/09/16 07:22:57;;;;;;;8.48;3.55;;;16.40;96.40;;;;;;6240060;23;20430;-69
2023/09/16 07:25:51;;;;;;;7.68;3.40;;;16.50;96.40;;;;;;6241244;22;20030;-68
2023/09/16 07:28:37;;;;;;;7.32;3.50;;;16.60;96.50;;;;;;6239220;23;20011;-70
2023/09/16 07:31:23;;;;;;;8.57;3.85;;;16.70;96.50;;;;;;6239322;23;20066;-68
2023/09/16 07:34:20;;;;;;;7.38;3.47;;;16.80;96.70;;;;;;6240026;23;20062;-70
2023/09/16 07:37:06;;;;;;;4.85;2.97;;;16.90;96.80;;;;;;6239661;23;20430;-67
2023/09/16 07:39:54;;;;;;;8.43;3.00;;;17.00;96.60;;;;;;6240708;22;20039;-67
2023/09/16 07:42:40;;;;;;;5.80;3.30;;;17.10;96.60;;;;;;6238057;23;20094;-68
2023/09/16 07:45:26;;;;;;;11.20;5.28;;;17.10;96.50;;;;;;6241201;23;20362;-67
2023/09/16 07:48:13;;;;;;;12.15;5.25;;;17.20;96.50;;;;;;6239474;23;20016;-67
2023/09/16 07:50:59;;;;;;;11.13;5.68;;;17.30;96.50;;;;;;6240181;23;20015;-67
2023/09/16 07:53:45;;;;;;;7.47;3.08;;;17.40;96.50;;;;;;6243255;23;20067;-67
2023/09/16 07:56:31;;;;;;;7.57;3.25;;;17.50;96.40;;;;;;6241492;22;20401;-65
2023/09/16 07:59:20;;;;;;;13.38;3.40;;;17.50;96.30;;;;;;6242292;23;20038;-66
2023/09/16 08:02:06;;;;;;;5.90;2.92;;;17.60;96.20;;;;;;6216856;23;20087;-65
2023/09/16 08:04:52;;;;;;;5.68;2.88;;;17.70;96.10;;;;;;6240777;23;20031;-67
2023/09/16 08:07:38;;;;;;;8.85;3.67;;;17.80;96.10;;;;;;6242661;22;20016;-66
2023/09/16 08:10:23;;;;;;;4.22;3.15;;;17.90;96.20;;;;;;6242423;23;20020;-67
2023/09/16 08:13:09;;;;;;;6.53;4.22;;;17.90;96.10;;;;;;6240111;23;20011;-67
2023/09/16 08:15:55;;;;;;;6.22;2.83;;;18.00;96.00;;;;;;6240050;23;20526;-67
2023/09/16 08:18:41;;;;;;;3.92;2.42;;;18.10;96.00;;;;;;6241619;23;20480;-67
2023/09/16 08:21:27;;;;;;;4.20;2.65;;;18.10;95.90;;;;;;6241471;23;20008;-69
2023/09/16 08:24:13;;;;;;;5.22;2.35;;;18.20;95.90;;;;;;6240584;23;20016;-70
2023/09/16 08:26:59;;;;;;;7.40;3.13;;;18.30;95.80;;;;;;6243394;23;20012;-68
2023/09/16 08:29:46;;;;;;;9.55;3.30;;;18.30;95.80;;;;;;6239801;23;20005;-66
2023/09/16 08:32:33;;;;;;;6.38;2.88;;;18.40;95.70;;;;;;6241178;23;20008;-66
2023/09/16 08:35:21;;;;;;;6.50;3.13;;;18.50;95.70;;;;;;6241531;23;20018;-67
2023/09/16 08:38:08;;;;;;;4.43;2.60;;;18.60;95.80;;;;;;6241513;23;20150;-68
2023/09/16 08:41:02;;;;;;;5.68;2.65;;;18.70;95.60;;;;;;6241573;23;20012;-67
2023/09/16 08:43:50;;;;;;;8.05;3.22;;;18.70;95.60;;;;;;6240438;23;20011;-67
2023/09/16 08:46:41;;;;;;;4.65;2.70;;;18.80;95.60;;;;;;6240060;23;20016;-70
2023/09/16 08:49:28;;;;;;;4.15;2.90;;;18.90;95.50;;;;;;6239353;23;20032;-68
2023/09/16 08:52:17;;;;;;;7.18;3.90;;;19.00;95.40;;;;;;6219340;23;20008;-67
2023/09/16 08:55:04;;;;;;;4.47;2.42;;;19.10;95.40;;;;;;6240862;22;20393;-68
2023/09/16 08:57:54;;;;;;;5.15;2.63;;;19.20;95.30;;;;;;6241172;23;20062;-66
2023/09/16 09:00:40;;;;;;;4.43;2.65;;;19.30;95.20;;;;;;6242315;23;20077;-66
2023/09/16 09:03:26;;;;;;;4.43;2.97;;;19.40;95.20;;;;;;6241798;22;20008;-67
2023/09/16 09:06:13;;;;;;;4.82;2.67;;;19.40;95.10;;;;;;6218723;23;20008;-67
2023/09/16 09:08:59;;;;;;;5.57;2.60;;;19.60;95.00;;;;;;6240556;23;20087;-67
2023/09/16 09:11:45;;;;;;;5.95;3.05;;;19.60;95.00;;;;;;6242508;23;20090;-69
2023/09/16 09:14:34;;;;;;;3.33;2.33;;;19.70;94.80;;;;;;6240561;23;20136;-69
2023/09/16 09:17:21;;;;;;;7.55;3.05;;;19.90;94.70;;;;;;6239560;23;20529;-69
2023/09/16 09:20:14;;;;;;;3.55;2.30;;;19.90;94.60;;;;;;6240256;23;20027;-65
2023/09/16 09:23:01;;;;;;;5.05;3.08;;;20.00;94.50;;;;;;6239337;23;20016;-64
2023/09/16 09:25:47;;;;;;;4.75;2.83;;;20.20;94.50;;;;;;6242109;23;20352;-64
2023/09/16 09:28:33;;;;;;;3.95;2.30;;;20.30;94.40;;;;;;6238289;23;20016;-64
2023/09/16 09:31:19;;;;;;;5.63;2.90;;;20.40;94.20;;;;;;6240178;23;20027;-65
2023/09/16 09:34:15;;;;;;;5.82;3.30;;;20.40;94.00;;;;;;6218208;23;20016;-65
2023/09/16 09:37:01;;;;;;;5.97;3.00;;;20.50;93.90;;;;;;6241176;23;20055;-65
2023/09/16 09:40:10;;;;;;;5.43;2.65;;;20.60;93.80;;;;;;6240622;23;20008;-65
2023/09/16 09:42:56;;;;;;;5.93;3.30;;;20.60;93.70;;;;;;6242942;22;20004;-65
2023/09/16 09:45:42;;;;;;;4.47;2.60;;;20.60;93.70;;;;;;6240555;23;20094;-65
2023/09/16 09:48:30;;;;;;;5.45;2.80;;;20.70;93.50;;;;;;6243386;23;20079;-65
2023/09/16 09:51:19;;;;;;;5.55;3.10;;;20.70;93.40;;;;;;6240243;23;20039;-65
2023/09/16 09:54:06;;;;;;;5.70;3.00;;;20.80;93.50;;;;;;6240722;23;20063;-65
2023/09/16 09:56:52;;;;;;;5.00;2.63;;;20.80;93.40;;;;;;6240566;22;20012;-65
2023/09/16 09:59:40;;;;;;;5.05;2.63;;;20.90;93.40;;;;;;6242258;23;20016;-65
2023/09/16 10:02:26;;;;;;;5.25;2.72;;;21.00;93.40;;;;;;6239803;23;20090;-68
2023/09/16 10:05:18;;;;;;;4.45;2.75;;;21.10;93.30;;;;;;6241525;23;20088;-68
2023/09/16 10:08:04;;;;;;;6.28;2.17;;;21.20;93.20;;;;;;6240816;22;20529;-68
2023/09/16 10:10:52;;;;;;;6.35;3.35;;;21.40;93.20;;;;;;6240559;23;20534;-68
2023/09/16 10:13:39;;;;;;;6.55;3.35;;;21.40;93.00;;;;;;6241496;23;20016;-68
2023/09/16 10:16:25;;;;;;;4.40;2.80;;;21.60;92.90;;;;;;6242430;23;20015;-68
2023/09/16 10:19:12;;;;;;;5.25;2.85;;;21.70;92.80;;;;;;6242979;22;20012;-67
2023/09/16 10:21:58;;;;;;;4.32;3.05;;;21.80;92.60;;;;;;6239857;23;20012;-67
2023/09/16 10:24:44;;;;;;;7.03;3.42;;;21.80;92.30;;;;;;6239005;23;20465;-67
2023/09/16 10:27:37;;;;;;;5.00;3.10;;;21.90;92.30;;;;;;6217225;23;20012;-67
2023/09/16 10:30:24;;;;;;;4.45;2.53;;;22.00;92.20;;;;;;6241262;23;20008;-67
2023/09/16 10:33:11;;;;;;;6.60;3.08;;;22.20;92.00;;;;;;6239828;23;20012;-67
2023/09/16 10:35:58;;;;;;;5.40;2.38;;;22.30;92.10;;;;;;6242056;22;20012;-68
2023/09/16 10:38:46;;;;;;;5.50;2.78;;;22.40;92.20;;;;;;6240962;23;20026;-68
2023/09/16 10:41:33;;;;;;;4.93;2.88;;;22.50;92.00;;;;;;6240303;23;20015;-68
2023/09/16 10:44:20;;;;;;;4.90;2.78;;;22.60;91.80;;;;;;6240880;23;20468;-68
2023/09/16 10:47:07;;;;;;;4.20;2.53;;;22.70;91.70;;;;;;6241140;23;20057;-68
2023/09/16 10:49:53;;;;;;;4.53;2.97;;;22.80;91.50;;;;;;6240741;23;20449;-66
2023/09/16 10:52:51;;;;;;;6.00;3.03;;;22.80;91.30;;;;;;6239867;23;20032;-67
2023/09/16 10:55:55;;;;;;;4.97;2.78;;;22.90;91.30;;;;;;6239955;22;20027;-68
2023/09/16 10:58:47;;;;;;;3.92;2.92;;;23.00;91.10;;;;;;6240077;23;20028;-67
2023/09/16 11:01:38;;;;;;;4.97;2.60;;;23.00;91.00;;;;;;6240254;23;20012;-69
2023/09/16 11:04:24;;;;;;;5.65;2.72;;;23.10;90.80;;;;;;6240135;23;20408;-67
2023/09/16 11:07:11;;;;;;;4.35;2.67;;;23.10;90.80;;;;;;6239786;23;20044;-67
2023/09/16 11:09:57;;;;;;;4.80;2.65;;;23.10;90.80;;;;;;6238654;23;20054;-68
2023/09/16 11:12:44;;;;;;;4.47;2.92;;;23.10;90.60;;;;;;6240808;23;20031;-67
2023/09/16 11:15:34;;;;;;;3.78;2.30;;;23.10;90.50;;;;;;6239566;23;20086;-67
2023/09/16 11:18:20;;;;;;;5.10;3.03;;;23.20;90.60;;;;;;6240026;23;20244;-67
2023/09/16 11:21:06;;;;;;;5.97;3.05;;;23.20;90.60;;;;;;6240825;23;20496;-67
2023/09/16 11:23:52;;;;;;;3.42;2.13;;;23.30;90.50;;;;;;6242264;23;20460;-67
2023/09/16 11:26:39;;;;;;;4.20;2.70;;;23.30;90.40;;;;;;6242178;23;20095;-66
2023/09/16 11:29:28;;;;;;;3.80;2.72;;;23.30;90.30;;;;;;6238764;23;20369;-66
2023/09/16 11:32:14;;;;;;;5.68;2.83;;;23.40;90.30;;;;;;6240156;23;20122;-67
2023/09/16 11:35:02;;;;;;;3.92;2.78;;;23.50;90.30;;;;;;6241623;23;20009;-66
2023/09/16 11:37:48;;;;;;;5.05;2.95;;;23.50;90.20;;;;;;6241281;23;20103;-66
2023/09/16 11:40:34;;;;;;;4.72;2.70;;;23.60;90.10;;;;;;6239461;23;20018;-67
2023/09/16 11:43:20;;;;;;;4.57;3.05;;;23.60;89.80;;;;;;6239075;23;20077;-67
2023/09/16 11:46:07;;;;;;;3.65;2.50;;;23.60;89.70;;;;;;6241390;23;20028;-67
2023/09/16 11:48:55;;;;;;;4.30;3.10;;;23.70;89.40;;;;;;6241114;23;20008;-67
2023/09/16 11:51:41;;;;;;;3.85;2.70;;;23.70;89.40;;;;;;6240491;23;20191;-67
2023/09/16 11:54:27;;;;;;;3.50;2.30;;;23.70;89.00;;;;;;6242034;23;20496;-68
2023/09/16 11:57:14;;;;;;;3.75;2.08;;;23.70;89.10;;;;;;6238659;23;20242;-67
2023/09/16 12:00:01;;;;;;;5.15;3.10;;;23.80;89.00;;;;;;6239435;23;20046;-68
2023/09/16 12:02:48;;;;;;;7.25;2.92;;;23.80;88.80;;;;;;6241272;23;20008;-67
2023/09/16 12:05:34;;;;;;;4.78;2.85;;;23.90;89.00;;;;;;6240246;23;20044;-68
2023/09/16 12:08:21;;;;;;;3.83;2.75;;;23.90;89.00;;;;;;6238288;22;20150;-67
2023/09/16 12:11:07;;;;;;;3.20;2.35;;;24.00;89.30;;;;;;6239535;23;20008;-68
2023/09/16 12:13:54;;;;;;;4.13;2.88;;;24.00;88.90;;;;;;6240290;23;20051;-68
2023/09/16 12:16:40;;;;;;;3.35;2.90;;;24.10;89.10;;;;;;6240512;23;20501;-68
2023/09/16 12:19:26;;;;;;;7.25;2.92;;;24.10;88.40;;;;;;6242042;23;20348;-68
2023/09/16 12:22:12;;;;;;;3.63;2.42;;;24.20;88.10;;;;;;6242065;23;20018;-68
2023/09/16 12:24:58;;;;;;;3.90;2.60;;;24.30;88.20;;;;;;6241652;23;20012;-68
2023/09/16 12:27:44;;;;;;;4.97;2.80;;;24.30;87.80;;;;;;6241814;23;20015;-68
2023/09/16 12:30:30;;;;;;;5.10;3.08;;;24.30;87.60;;;;;;6242167;23;20016;-68
2023/09/16 12:33:19;;;;;;;4.80;3.10;;;24.30;87.60;;;;;;6241880;23;20386;-67
2023/09/16 12:36:06;;;;;;;5.47;3.13;;;24.40;87.60;;;;;;6241893;23;20014;-68
2023/09/16 12:38:53;;;;;;;4.18;2.53;;;24.50;87.50;;;;;;6242469;23;20543;-68
2023/09/16 12:41:40;;;;;;;5.93;3.10;;;24.60;86.90;;;;;;6242835;23;20087;-68
2023/09/16 12:44:27;;;;;;;6.80;3.30;;;24.60;87.10;;;;;;6242017;23;20119;-68
2023/09/16 12:47:13;;;;;;;3.90;2.83;;;24.70;87.30;;;;;;6242219;23;20012;-68
2023/09/16 12:50:00;;;;;;;3.95;2.72;;;24.70;86.80;;;;;;6241441;23;20400;-68
2023/09/16 12:52:46;;;;;;;4.18;2.90;;;24.70;86.30;;;;;;6241212;23;20039;-68
2023/09/16 12:55:32;;;;;;;4.38;3.13;;;24.80;86.30;;;;;;6241194;22;20046;-68
2023/09/16 12:58:18;;;;;;;5.72;2.92;;;24.90;86.40;;;;;;6242687;23;20587;-68
2023/09/16 13:01:04;;;;;;;4.40;2.70;;;24.90;85.90;;;;;;6243239;22;20499;-68
2023/09/16 13:03:50;;;;;;;4.00;2.85;;;24.90;85.50;;;;;;6242411;23;20061;-68
2023/09/16 13:06:37;;;;;;;6.05;2.20;;;25.00;85.60;;;;;;6241592;23;20012;-68
2023/09/16 13:09:30;;;;;;;4.57;2.53;;;25.10;85.60;;;;;;6241715;22;20186;-68
2023/09/16 13:12:16;;;;;;;3.95;2.83;;;25.10;85.10;;;;;;6239937;23;20054;-68
2023/09/16 13:15:03;;;;;;;5.30;3.10;;;25.20;85.60;;;;;;6243829;22;20013;-68
2023/09/16 13:17:57;;;;;;;3.63;2.45;;;25.30;84.80;;;;;;6240609;23;20020;-68
2023/09/16 13:20:43;;;;;;;3.43;2.27;;;25.30;84.70;;;;;;6241279;23;20015;-68
2023/09/16 13:23:29;;;;;;;3.67;2.55;;;25.40;84.60;;;;;;6240270;23;20012;-68
2023/09/16 13:26:15;;;;;;;5.68;2.40;;;25.50;84.70;;;;;;6240166;23;20008;-68
2023/09/16 13:29:03;;;;;;;4.05;2.65;;;25.50;84.50;;;;;;6241518;23;20488;-68
2023/09/16 13:32:00;;;;;;;5.47;2.80;;;25.60;84.20;;;;;;6220919;23;20012;-68
2023/09/16 13:34:46;;;;;;;5.95;3.10;;;25.70;84.10;;;;;;6241463;23;20493;-68
2023/09/16 13:37:35;;;;;;;5.13;3.30;;;25.70;84.00;;;;;;6218792;23;20016;-68
2023/09/16 13:40:22;;;;;;;3.83;2.70;;;25.80;83.70;;;;;;6239438;23;20012;-68
2023/09/16 13:43:08;;;;;;;3.75;2.60;;;25.80;83.20;;;;;;6238770;23;20015;-68
2023/09/16 13:45:56;;;;;;;5.18;2.75;;;25.90;83.30;;;;;;6240119;23;20012;-68
2023/09/16 13:48:42;;;;;;;4.00;2.83;;;25.90;83.00;;;;;;6240711;23;20378;-68
2023/09/16 13:51:28;;;;;;;3.83;2.45;;;26.00;82.70;;;;;;6240455;23;20010;-67
2023/09/16 13:54:14;;;;;;;4.18;2.60;;;26.10;82.60;;;;;;6242674;22;20446;-68
2023/09/16 13:57:01;;;;;;;5.30;2.92;;;26.10;82.50;;;;;;6242470;22;20389;-68
2023/09/16 13:59:47;;;;;;;4.30;2.85;;;26.20;82.40;;;;;;6239130;23;20039;-68
2023/09/16 14:02:33;;;;;;;4.50;2.65;;;26.20;82.60;;;;;;6242370;23;20066;-69
2023/09/16 14:05:19;;;;;;;4.72;2.80;;;26.10;82.00;;;;;;6242596;23;20435;-68
2023/09/16 14:08:05;;;;;;;4.97;3.15;;;26.10;81.80;;;;;;6239587;22;20103;-68
2023/09/16 14:10:51;;;;;;;3.97;2.40;;;26.20;81.90;;;;;;6240681;23;20326;-68
2023/09/16 14:13:38;;;;;;;3.53;2.50;;;26.20;81.50;;;;;;6239387;23;20426;-68
2023/09/16 14:16:24;;;;;;;3.75;2.78;;;26.30;82.10;;;;;;6241452;23;20015;-68
2023/09/16 14:19:10;;;;;;;5.00;2.95;;;26.40;81.80;;;;;;6241424;23;20095;-68
2023/09/16 14:21:56;;;;;;;4.32;2.55;;;26.40;81.20;;;;;;6239739;23;20560;-69
2023/09/16 14:24:42;;;;;;;3.47;2.70;;;26.50;81.10;;;;;;6240484;23;20091;-69
2023/09/16 14:27:28;;;;;;;3.47;2.60;;;26.60;80.40;;;;;;6241568;23;20012;-68
2023/09/16 14:30:16;;;;;;;4.93;2.92;;;26.70;80.40;;;;;;6242635;22;20012;-69
2023/09/16 14:33:02;;;;;;;4.35;2.58;;;26.90;80.30;;;;;;6241177;23;20012;-68
2023/09/16 14:35:47;;;;;;;4.13;2.30;;;26.90;80.00;;;;;;6242143;23;20099;-68
2023/09/16 14:38:33;;;;;;;3.40;2.35;;;27.00;79.80;;;;;;6241091;23;20047;-68
2023/09/16 14:41:19;;;;;;;3.95;2.30;;;27.10;79.50;;;;;;6240232;23;20446;-69
2023/09/16 14:44:05;;;;;;;3.40;2.22;;;27.20;79.20;;;;;;6242490;22;20047;-69
2023/09/16 14:46:54;;;;;;;6.47;2.85;;;27.40;79.10;;;;;;6240708;23;20363;-69
2023/09/16 14:49:41;;;;;;;10.30;3.33;;;27.40;79.10;;;;;;6240341;23;20016;-68
2023/09/16 14:52:27;;;;;;;4.32;2.70;;;27.50;78.90;;;;;;6240370;23;20004;-69
2023/09/16 14:55:14;;;;;;;4.35;3.03;;;27.50;78.40;;;;;;6240826;22;20015;-69
2023/09/16 14:58:00;;;;;;;3.70;2.42;;;27.60;78.30;;;;;;6241216;23;20024;-69
2023/09/16 15:00:47;;;;;;;3.10;2.30;;;27.60;77.70;;;;;;6239637;23;20011;-68
2023/09/16 15:03:32;;;;;;;3.75;2.58;;;27.60;77.40;;;;;;6240896;23;20008;-68
2023/09/16 15:06:18;;;;;;;4.80;2.22;;;27.60;77.00;;;;;;6239562;23;20115;-67
2023/09/16 15:09:05;;;;;;;3.13;2.03;;;27.70;76.90;;;;;;6242089;22;20020;-67
2023/09/16 15:11:51;;;;;;;4.70;2.38;;;27.60;77.40;;;;;;6241974;23;20019;-68
2023/09/16 15:14:36;;;;;;;3.25;2.03;;;27.60;76.90;;;;;;6220055;23;20023;-68
2023/09/16 15:17:25;;;;;;;5.03;2.15;;;27.60;77.00;;;;;;6240264;23;20090;-67
2023/09/16 15:20:11;;;;;;;3.28;2.40;;;27.60;76.30;;;;;;6241003;23;20046;-68
2023/09/16 15:22:57;;;;;;;4.82;2.70;;;27.60;76.30;;;;;;6218378;23;20091;-68
2023/09/16 15:25:43;;;;;;;6.00;2.78;;;27.60;76.00;;;;;;6218592;23;20016;-68
2023/09/16 15:28:29;;;;;;;3.78;2.25;;;27.60;75.90;;;;;;6242053;23;20057;-68
2023/09/16 15:31:16;;;;;;;3.45;2.55;;;27.60;76.30;;;;;;6241281;23;20012;-68
2023/09/16 15:34:02;;;;;;;3.47;2.50;;;27.50;76.20;;;;;;6240209;23;20449;-68
2023/09/16 15:36:48;;;;;;;3.53;2.40;;;27.50;76.40;;;;;;6218131;23;20008;-68
2023/09/16 15:39:34;;;;;;;4.43;2.38;;;27.50;75.90;;;;;;6242506;23;20016;-68
2023/09/16 15:42:20;;;;;;;4.28;2.72;;;27.60;76.00;;;;;;6241992;23;20012;-68
2023/09/16 15:45:07;;;;;;;5.72;2.95;;;27.60;76.40;;;;;;6241430;23;20014;-68
2023/09/16 15:47:53;;;;;;;3.33;2.35;;;27.60;75.90;;;;;;6239208;23;20376;-68
2023/09/16 15:50:46;;;;;;;4.57;3.15;;;27.60;75.60;;;;;;6237979;23;20042;-67
2023/09/16 15:53:32;;;;;;;3.47;2.60;;;27.60;75.70;;;;;;6240188;23;20442;-68
2023/09/16 15:56:18;;;;;;;4.20;2.80;;;27.60;75.80;;;;;;6241094;22;20450;-68
2023/09/16 15:59:04;;;;;;;6.65;2.90;;;27.50;75.80;;;;;;6240709;23;20364;-69
2023/09/16 16:01:50;;;;;;;3.90;2.50;;;27.50;75.80;;;;;;6239812;23;20062;-68
2023/09/16 16:04:37;;;;;;;4.45;3.08;;;27.40;75.90;;;;;;6241320;23;20040;-68
2023/09/16 16:07:23;;;;;;;4.50;2.70;;;27.30;76.20;;;;;;6242056;23;20004;-68
2023/09/16 16:10:11;;;;;;;7.80;3.97;;;27.30;76.40;;;;;;6210642;23;20358;-68
2023/09/16 16:12:57;;;;;;;5.85;3.05;;;27.30;76.50;;;;;;6210306;23;20018;-68
2023/09/16 16:15:43;;;;;;;4.18;2.67;;;27.20;76.70;;;;;;6209613;23;20028;-70
2023/09/16 16:18:30;;;;;;;6.32;3.35;;;27.20;76.60;;;;;;6209572;23;20055;-68
2023/09/16 16:21:16;;;;;;;4.28;3.20;;;27.10;77.00;;;;;;6209452;23;20074;-68
2023/09/16 16:24:04;;;;;;;3.83;2.58;;;27.00;77.10;;;;;;6212851;23;20450;-68
2023/09/16 16:26:50;;;;;;;4.30;2.90;;;26.90;77.10;;;;;;6212167;23;20008;-68
2023/09/16 16:29:36;;;;;;;4.53;2.85;;;26.80;77.30;;;;;;6209596;23;20015;-68
2023/09/16 16:32:22;;;;;;;3.70;2.78;;;26.80;77.50;;;;;;6189159;23;20013;-68
2023/09/16 16:35:08;;;;;;;3.17;2.30;;;26.70;77.90;;;;;;6200620;23;20492;-68
2023/09/16 16:37:54;;;;;;;3.67;2.20;;;26.50;78.10;;;;;;6210799;23;20473;-68
2023/09/16 16:40:40;;;;;;;4.13;2.70;;;26.50;78.50;;;;;;6209628;23;20295;-68
2023/09/16 16:43:26;;;;;;;4.10;2.92;;;26.40;78.80;;;;;;6210710;23;20446;-68
2023/09/16 16:46:11;;;;;;;6.05;3.10;;;26.30;79.20;;;;;;6208630;23;20058;-68
2023/09/16 16:48:59;;;;;;;4.50;2.75;;;26.10;79.90;;;;;;6209886;23;20454;-68
2023/09/16 16:51:44;;;;;;;4.18;2.58;;;26.10;79.80;;;;;;6208368;23;20013;-68
2023/09/16 16:54:30;;;;;;;5.50;3.25;;;25.90;80.10;;;;;;6211668;23;20013;-68
2023/09/16 16:57:16;;;;;;;7.10;3.45;;;25.80;80.40;;;;;;6210697;23;20012;-68
2023/09/16 17:00:07;;;;;;;4.95;3.25;;;25.70;80.70;;;;;;6210089;23;20030;-67
2023/09/16 17:02:53;;;;;;;5.65;3.42;;;25.60;81.00;;;;;;6211240;23;20038;-68
2023/09/16 17:05:39;;;;;;;4.47;2.75;;;25.50;81.20;;;;;;6210617;23;20009;-68
2023/09/16 17:08:24;;;;;;;4.80;3.00;;;25.30;81.50;;;;;;6207754;23;20106;-68
2023/09/16 17:11:10;;;;;;;3.83;2.88;;;25.30;81.80;;;;;;6210438;23;20067;-68
2023/09/16 17:13:58;;;;;;;6.20;3.80;;;25.10;82.00;;;;;;6211094;23;20016;-67
2023/09/16 17:16:43;;;;;;;5.35;2.88;;;25.10;82.40;;;;;;6211245;23;20016;-67
2023/09/16 17:19:30;;;;;;;5.07;3.10;;;24.90;82.60;;;;;;6210539;23;20017;-67
2023/09/16 17:22:17;;;;;;;5.65;3.95;;;24.80;82.80;;;;;;6209503;23;20009;-67
2023/09/16 17:25:04;;;;;;;6.75;3.78;;;24.70;83.20;;;;;;6211055;23;20474;-67
2023/09/16 17:27:50;;;;;;;5.53;3.53;;;24.70;83.50;;;;;;6211238;23;20426;-71
2023/09/16 17:30:36;;;;;;;5.10;3.60;;;24.60;83.80;;;;;;6210474;23;20060;-66
2023/09/16 17:33:22;;;;;;;6.18;3.75;;;24.50;84.00;;;;;;6210171;23;20051;-66
2023/09/16 17:36:08;;;;;;;5.63;3.42;;;24.40;84.30;;;;;;6210499;23;20019;-66
2023/09/16 17:38:53;;;;;;;6.32;4.38;;;24.30;84.50;;;;;;6211112;23;20021;-65
2023/09/16 17:41:39;;;;;;;8.90;3.92;;;24.30;84.80;;;;;;6211148;23;20015;-65
2023/09/16 17:44:25;;;;;;;4.60;3.42;;;24.20;85.10;;;;;;6209529;23;20091;-65
2023/09/16 17:47:14;;;;;;;5.40;3.30;;;24.20;85.30;;;;;;6209937;23;20066;-65
2023/09/16 17:50:00;;;;;;;5.18;3.53;;;24.10;85.70;;;;;;6209982;23;20020;-66
2023/09/16 17:52:46;;;;;;;5.00;3.15;;;24.00;85.90;;;;;;6210125;23;20012;-65
2023/09/16 17:55:32;;;;;;;4.70;3.33;;;24.00;86.10;;;;;;6210212;23;20469;-65
2023/09/16 17:58:18;;;;;;;4.95;3.35;;;23.90;86.40;;;;;;6208701;23;20052;-65
2023/09/16 18:01:04;;;;;;;6.50;4.18;;;23.80;86.50;;;;;;6210246;23;20009;-65
2023/09/16 18:03:50;;;;;;;6.50;3.92;;;23.70;86.70;;;;;;6209030;23;20473;-65
2023/09/16 18:06:37;;;;;;;5.30;3.53;;;23.70;86.90;;;;;;6210844;23;20012;-65
2023/09/16 18:09:23;;;;;;;4.88;3.67;;;23.70;87.20;;;;;;6210806;23;20024;-65
2023/09/16 18:12:09;;;;;;;12.35;3.72;;;23.60;87.40;;;;;;6209494;23;20015;-65
2023/09/16 18:14:55;;;;;;;5.75;4.00;;;23.50;87.70;;;;;;6209358;23;20067;-65
2023/09/16 18:17:41;;;;;;;6.93;4.15;;;23.40;87.90;;;;;;6211239;23;20060;-65
2023/09/16 18:20:27;;;;;;;7.47;4.05;;;23.40;88.20;;;;;;6210926;23;20019;-65
2023/09/16 18:23:13;;;;;;;6.65;3.72;;;23.40;88.40;;;;;;6209839;23;20022;-65
2023/09/16 18:26:00;;;;;;;5.05;3.55;;;23.30;88.60;;;;;;6208660;23;20009;-65
2023/09/16 18:28:46;;;;;;;5.85;3.92;;;23.30;88.80;;;;;;6211505;23;20009;-65
2023/09/16 18:31:32;;;;;;;4.90;3.67;;;23.20;89.00;;;;;;6210519;23;20008;-64
2023/09/16 18:34:19;;;;;;;5.05;3.53;;;23.20;89.30;;;;;;6209387;23;20044;-65
2023/09/16 18:37:05;;;;;;;6.53;4.30;;;23.10;89.40;;;;;;6210563;23;20009;-65
2023/09/16 18:39:51;;;;;;;6.20;3.90;;;23.10;89.50;;;;;;6209470;23;20013;-65
2023/09/16 18:42:37;;;;;;;6.68;4.50;;;23.00;89.70;;;;;;6210117;23;20005;-65
2023/09/16 18:45:23;;;;;;;4.85;3.42;;;23.00;89.90;;;;;;6188751;23;20023;-65
2023/09/16 18:48:09;;;;;;;7.30;4.45;;;22.90;90.00;;;;;;6210266;23;20009;-65
2023/09/16 18:50:55;;;;;;;6.35;4.03;;;22.90;90.10;;;;;;6210219;23;20012;-65
2023/09/16 18:53:41;;;;;;;6.10;3.92;;;22.90;90.10;;;;;;6209444;23;20012;-66
2023/09/16 18:56:28;;;;;;;7.70;4.82;;;22.80;90.20;;;;;;6210020;23;20091;-65
2023/09/16 18:59:17;;;;;;;6.07;4.07;;;22.80;90.30;;;;;;6210290;23;20424;-65
2023/09/16 19:02:03;;;;;;;10.48;4.15;;;22.70;90.40;;;;;;6211372;23;20092;-65
2023/09/16 19:04:51;;;;;;;7.72;4.53;;;22.70;90.50;;;;;;6188630;23;20090;-65
2023/09/16 19:07:38;;;;;;;6.15;3.83;;;22.70;90.50;;;;;;6209265;23;20016;-65
2023/09/16 19:10:24;;;;;;;6.13;4.35;;;22.60;90.60;;;;;;6242110;23;20122;-65
2023/09/16 19:13:10;;;;;;;8.13;4.28;;;22.60;90.70;;;;;;6239658;23;20416;-64
2023/09/16 19:15:56;;;;;;;8.90;4.32;;;22.50;90.80;;;;;;6239575;23;20004;-65
2023/09/16 19:18:42;;;;;;;11.25;4.82;;;22.50;90.90;;;;;;6239145;23;20024;-65
2023/09/16 19:21:28;;;;;;;9.68;5.25;;;22.40;90.90;;;;;;6239575;23;20067;-65
2023/09/16 19:24:14;;;;;;;6.70;4.50;;;22.40;91.00;;;;;;6219115;23;20047;-65
2023/09/16 19:27:02;;;;;;;6.65;4.97;;;22.40;91.10;;;;;;6240194;23;20043;-65
2023/09/16 19:29:47;;;;;;;7.38;4.53;;;22.30;91.20;;;;;;6238179;23;20011;-65
2023/09/16 19:32:33;;;;;;;6.90;4.82;;;22.30;91.30;;;;;;6240745;23;20008;-65
2023/09/16 19:35:19;;;;;;;6.85;4.57;;;22.30;91.40;;;;;;6240444;23;20012;-65
2023/09/16 19:38:05;;;;;;;7.63;4.70;;;22.20;91.40;;;;;;6239470;23;20023;-65
2023/09/16 19:40:51;;;;;;;8.38;4.65;;;22.20;91.50;;;;;;6241093;23;20008;-65
2023/09/16 19:43:37;;;;;;;6.88;4.63;;;22.10;91.50;;;;;;6242491;23;20326;-66
2023/09/16 19:46:23;;;;;;;7.88;4.30;;;22.10;91.60;;;;;;6243296;23;20008;-65
2023/09/16 19:49:09;;;;;;;7.18;5.05;;;22.10;91.70;;;;;;6242486;23;20050;-65
2023/09/16 19:51:55;;;;;;;8.95;5.68;;;22.00;91.80;;;;;;6242918;23;20022;-65
2023/09/16 19:54:41;;;;;;;6.78;5.13;;;22.00;91.90;;;;;;6242402;23;20046;-64
2023/09/16 19:57:27;;;;;;;6.88;5.50;;;21.90;92.00;;;;;;6242368;23;20745;-65
2023/09/16 20:00:13;;;;;;;7.90;5.95;;;21.90;92.10;;;;;;6241888;23;20046;-65
2023/09/16 20:02:59;;;;;;;12.65;5.45;;;21.90;92.10;;;;;;6240415;23;20039;-66
2023/09/16 20:05:46;;;;;;;9.15;6.90;;;21.80;92.20;;;;;;6242041;23;20091;-65
2023/09/16 20:08:32;;;;;;;9.02;6.40;;;21.80;92.30;;;;;;6239013;23;20020;-63
2023/09/16 20:11:18;;;;;;;10.82;7.68;;;21.70;92.40;;;;;;6241798;23;20434;-64
2023/09/16 20:14:04;;;;;;;9.70;6.50;;;21.70;92.60;;;;;;6220463;23;20096;-65
2023/09/16 20:16:50;;;;;;;9.43;5.75;;;21.60;92.60;;;;;;6242278;23;20796;-79
2023/09/16 20:19:36;;;;;;;8.40;6.10;;;21.60;92.70;;;;;;6266170;23;20015;-78
2023/09/16 20:22:22;;;;;;;8.35;5.53;;;21.50;92.80;;;;;;6262910;23;20008;-77
2023/09/16 20:25:09;;;;;;;9.98;6.38;;;21.50;92.90;;;;;;6265238;22;20055;-81
2023/09/16 20:27:58;;;;;;;9.50;6.20;;;21.50;93.00;;;;;;6254391;23;20021;-76
2023/09/16 20:30:44;;;;;;;10.20;6.32;;;21.50;93.10;;;;;;6237984;23;20070;-77
2023/09/16 20:33:30;;;;;;;8.38;5.95;;;21.40;93.20;;;;;;6243645;23;20440;-65
2023/09/16 20:36:16;;;;;;;10.07;6.32;;;21.40;93.30;;;;;;6244907;22;20429;-64
2023/09/16 20:39:03;;;;;;;8.23;6.50;;;21.30;93.40;;;;;;6220304;23;20020;-66
2023/09/16 20:41:49;;;;;;;8.25;5.95;;;21.30;93.50;;;;;;6241949;23;20306;-66
2023/09/16 20:44:35;;;;;;;9.07;5.68;;;21.30;93.60;;;;;;6243167;23;20008;-65
2023/09/16 20:47:21;;;;;;;7.55;5.65;;;21.20;93.60;;;;;;6239957;23;20090;-65
2023/09/16 20:50:08;;;;;;;10.38;6.50;;;21.20;93.80;;;;;;6242862;22;20062;-65
2023/09/16 20:52:54;;;;;;;8.27;6.13;;;21.10;93.80;;;;;;6241345;23;20014;-65
2023/09/16 20:55:40;;;;;;;10.98;6.10;;;21.10;93.90;;;;;;6240749;22;20023;-65
2023/09/16 20:58:26;;;;;;;9.32;5.78;;;21.00;94.00;;;;;;6240456;23;20020;-65
2023/09/16 21:01:12;;;;;;;9.65;5.82;;;21.00;94.10;;;;;;6243563;22;20012;-65
2023/09/16 21:03:58;;;;;;;9.75;6.38;;;21.00;94.20;;;;;;6243133;22;20350;-65
2023/09/16 21:06:45;;;;;;;7.07;5.38;;;20.90;94.20;;;;;;6240124;23;20083;-65
2023/09/16 21:09:31;;;;;;;7.32;5.85;;;20.90;94.20;;;;;;6241901;23;20066;-65
2023/09/16 21:12:16;;;;;;;8.10;5.18;;;20.90;94.40;;;;;;6242640;23;20020;-65
2023/09/16 21:15:03;;;;;;;10.68;6.60;;;20.80;94.40;;;;;;6241090;23;20016;-79
2023/09/16 21:17:49;;;;;;;9.38;6.18;;;20.80;94.60;;;;;;6241556;23;20020;-80
2023/09/16 21:20:35;;;;;;;9.73;6.32;;;20.80;94.60;;;;;;6243103;22;20338;-80
2023/09/16 21:23:22;;;;;;;9.70;5.88;;;20.70;94.70;;;;;;6242892;23;20069;-80
2023/09/16 21:26:08;;;;;;;8.68;5.93;;;20.70;94.80;;;;;;6242597;23;20044;-80
2023/09/16 21:28:55;;;;;;;9.02;5.88;;;20.60;94.90;;;;;;6241777;23;20008;-80
2023/09/16 21:31:41;;;;;;;7.93;5.88;;;20.60;95.00;;;;;;6242230;23;20020;-81
2023/09/16 21:34:28;;;;;;;9.02;6.22;;;20.60;95.10;;;;;;6241348;23;20437;-79